sensor_id;sensor_type;location;lat;lon;timestamp;P1;durP1;ratioP1;P2;durP2;ratioP2
51020;SDS011;38907;45.562;8.856;2023-04-01T00:02:44;6.82;;;4.20;;
51020;SDS011;38907;45.562;8.856;2023-04-01T00:07:48;5.30;;;3.70;;
51020;SDS011;38907;45.562;8.856;2023-04-01T00:12:50;6.60;;;3.92;;
51020;SDS011;38907;45.562;8.856;2023-04-01T00:17:53;5.10;;;3.70;;
51020;SDS011;38907;45.562;8.856;2023-04-01T00:22:56;5.93;;;3.97;;
51020;SDS011;38907;45.562;8.856;2023-04-01T00:27:58;5.95;;;3.97;;
51020;SDS011;38907;45.562;8.856;2023-04-01T00:33:00;6.10;;;4.55;;
51020;SDS011;38907;45.562;8.856;2023-04-01T00:38:03;5.80;;;4.60;;
51020;SDS011;38907;45.562;8.856;2023-04-01T00:43:09;6.40;;;4.57;;
51020;SDS011;38907;45.562;8.856;2023-04-01T00:48:14;5.72;;;3.97;;
51020;SDS011;38907;45.562;8.856;2023-04-01T00:53:20;5.97;;;4.95;;
51020;SDS011;38907;45.562;8.856;2023-04-01T00:58:23;7.40;;;5.00;;
51020;SDS011;38907;45.562;8.856;2023-04-01T01:03:25;5.33;;;4.80;;
51020;SDS011;38907;45.562;8.856;2023-04-01T01:08:31;6.43;;;4.95;;
51020;SDS011;38907;45.562;8.856;2023-04-01T01:13:42;5.53;;;4.63;;
51020;SDS011;38907;45.562;8.856;2023-04-01T01:18:55;6.50;;;4.73;;
51020;SDS011;38907;45.562;8.856;2023-04-01T01:30:11;6.35;;;5.00;;
51020;SDS011;38907;45.562;8.856;2023-04-01T01:35:22;6.28;;;4.50;;
51020;SDS011;38907;45.562;8.856;2023-04-01T01:40:27;6.97;;;4.50;;
51020;SDS011;38907;45.562;8.856;2023-04-01T01:45:32;4.93;;;4.40;;
51020;SDS011;38907;45.562;8.856;2023-04-01T01:50:37;5.32;;;4.43;;
51020;SDS011;38907;45.562;8.856;2023-04-01T01:55:42;7.57;;;4.95;;
51020;SDS011;38907;45.562;8.856;2023-04-01T02:00:46;7.22;;;4.88;;
51020;SDS011;38907;45.562;8.856;2023-04-01T02:05:54;6.07;;;4.85;;
51020;SDS011;38907;45.562;8.856;2023-04-01T02:10:59;7.88;;;4.80;;
51020;SDS011;38907;45.562;8.856;2023-04-01T02:16:10;5.97;;;4.70;;
51020;SDS011;38907;45.562;8.856;2023-04-01T02:21:18;7.15;;;5.43;;
51020;SDS011;38907;45.562;8.856;2023-04-01T02:26:23;6.10;;;4.78;;
51020;SDS011;38907;45.562;8.856;2023-04-01T02:36:30;12.32;;;5.05;;
51020;SDS011;38907;45.562;8.856;2023-04-01T02:41:38;8.85;;;5.53;;
51020;SDS011;38907;45.562;8.856;2023-04-01T02:46:40;5.97;;;5.07;;
51020;SDS011;38907;45.562;8.856;2023-04-01T02:51:43;10.57;;;5.65;;
51020;SDS011;38907;45.562;8.856;2023-04-01T02:56:45;9.43;;;5.88;;
51020;SDS011;38907;45.562;8.856;2023-04-01T03:01:47;9.20;;;5.82;;
51020;SDS011;38907;45.562;8.856;2023-04-01T03:06:50;6.88;;;5.45;;
51020;SDS011;38907;45.562;8.856;2023-04-01T03:11:52;6.25;;;4.75;;
51020;SDS011;38907;45.562;8.856;2023-04-01T03:16:54;7.80;;;5.00;;
51020;SDS011;38907;45.562;8.856;2023-04-01T03:21:57;9.70;;;5.68;;
51020;SDS011;38907;45.562;8.856;2023-04-01T03:26:59;7.65;;;5.85;;
51020;SDS011;38907;45.562;8.856;2023-04-01T03:32:01;8.18;;;6.10;;
51020;SDS011;38907;45.562;8.856;2023-04-01T03:37:04;11.20;;;6.35;;
51020;SDS011;38907;45.562;8.856;2023-04-01T03:42:06;8.40;;;5.85;;
51020;SDS011;38907;45.562;8.856;2023-04-01T03:47:08;10.38;;;6.70;;
51020;SDS011;38907;45.562;8.856;2023-04-01T03:52:11;7.68;;;5.95;;
51020;SDS011;38907;45.562;8.856;2023-04-01T03:57:13;9.63;;;6.28;;
51020;SDS011;38907;45.562;8.856;2023-04-01T04:02:15;8.50;;;5.57;;
51020;SDS011;38907;45.562;8.856;2023-04-01T04:07:19;8.90;;;5.78;;
51020;SDS011;38907;45.562;8.856;2023-04-01T04:12:21;11.20;;;6.00;;
51020;SDS011;38907;45.562;8.856;2023-04-01T04:17:23;10.43;;;6.63;;
51020;SDS011;38907;45.562;8.856;2023-04-01T04:22:26;8.85;;;6.10;;
51020;SDS011;38907;45.562;8.856;2023-04-01T04:27:28;8.82;;;6.00;;
51020;SDS011;38907;45.562;8.856;2023-04-01T04:32:30;9.68;;;5.28;;
51020;SDS011;38907;45.562;8.856;2023-04-01T04:37:33;7.45;;;5.40;;
51020;SDS011;38907;45.562;8.856;2023-04-01T04:42:35;10.88;;;6.03;;
51020;SDS011;38907;45.562;8.856;2023-04-01T04:47:37;10.52;;;6.50;;
51020;SDS011;38907;45.562;8.856;2023-04-01T04:52:40;8.20;;;6.10;;
51020;SDS011;38907;45.562;8.856;2023-04-01T04:57:42;7.30;;;5.53;;
51020;SDS011;38907;45.562;8.856;2023-04-01T05:02:43;7.25;;;5.88;;
51020;SDS011;38907;45.562;8.856;2023-04-01T05:07:47;8.30;;;5.68;;
51020;SDS011;38907;45.562;8.856;2023-04-01T05:12:48;8.73;;;5.38;;
51020;SDS011;38907;45.562;8.856;2023-04-01T05:17:50;6.93;;;5.00;;
51020;SDS011;38907;45.562;8.856;2023-04-01T05:22:56;8.20;;;4.70;;
51020;SDS011;38907;45.562;8.856;2023-04-01T05:27:58;6.03;;;3.95;;
51020;SDS011;38907;45.562;8.856;2023-04-01T05:33:01;5.73;;;3.70;;
51020;SDS011;38907;45.562;8.856;2023-04-01T05:38:05;8.07;;;4.70;;
51020;SDS011;38907;45.562;8.856;2023-04-01T05:43:07;6.63;;;3.95;;
51020;SDS011;38907;45.562;8.856;2023-04-01T05:48:08;7.97;;;4.60;;
51020;SDS011;38907;45.562;8.856;2023-04-01T05:53:12;5.57;;;4.32;;
51020;SDS011;38907;45.562;8.856;2023-04-01T05:58:14;7.82;;;5.68;;
51020;SDS011;38907;45.562;8.856;2023-04-01T06:03:15;6.75;;;3.67;;
51020;SDS011;38907;45.562;8.856;2023-04-01T06:08:19;6.13;;;4.22;;
51020;SDS011;38907;45.562;8.856;2023-04-01T06:13:24;3.55;;;3.15;;
51020;SDS011;38907;45.562;8.856;2023-04-01T06:24:00;5.03;;;3.60;;
51020;SDS011;38907;45.562;8.856;2023-04-01T06:40:36;4.60;;;3.13;;
51020;SDS011;38907;45.562;8.856;2023-04-01T06:45:50;8.77;;;3.53;;
51020;SDS011;38907;45.562;8.856;2023-04-01T06:51:01;5.53;;;4.15;;
51020;SDS011;38907;45.562;8.856;2023-04-01T06:56:12;4.75;;;4.28;;
51020;SDS011;38907;45.562;8.856;2023-04-01T07:01:20;5.15;;;4.43;;
51020;SDS011;38907;45.562;8.856;2023-04-01T07:06:28;8.15;;;4.47;;
51020;SDS011;38907;45.562;8.856;2023-04-01T07:11:34;5.20;;;4.20;;
51020;SDS011;38907;45.562;8.856;2023-04-01T07:16:39;5.10;;;4.13;;
51020;SDS011;38907;45.562;8.856;2023-04-01T07:21:46;4.57;;;3.55;;
51020;SDS011;38907;45.562;8.856;2023-04-01T07:26:54;3.65;;;3.35;;
51020;SDS011;38907;45.562;8.856;2023-04-01T07:32:06;3.55;;;3.25;;
51020;SDS011;38907;45.562;8.856;2023-04-01T07:37:21;6.72;;;3.97;;
51020;SDS011;38907;45.562;8.856;2023-04-01T07:42:31;7.63;;;3.13;;
51020;SDS011;38907;45.562;8.856;2023-04-01T07:47:47;2.83;;;2.50;;
51020;SDS011;38907;45.562;8.856;2023-04-01T07:53:04;6.82;;;2.72;;
51020;SDS011;38907;45.562;8.856;2023-04-01T07:58:16;2.20;;;1.73;;
51020;SDS011;38907;45.562;8.856;2023-04-01T08:03:27;2.25;;;1.67;;
51020;SDS011;38907;45.562;8.856;2023-04-01T08:08:42;4.22;;;1.95;;
51020;SDS011;38907;45.562;8.856;2023-04-01T08:14:00;5.53;;;4.00;;
51020;SDS011;38907;45.562;8.856;2023-04-01T08:19:13;3.20;;;2.80;;
51020;SDS011;38907;45.562;8.856;2023-04-01T08:24:25;2.30;;;1.60;;
51020;SDS011;38907;45.562;8.856;2023-04-01T08:29:36;6.13;;;2.60;;
51020;SDS011;38907;45.562;8.856;2023-04-01T08:34:42;2.15;;;1.70;;
51020;SDS011;38907;45.562;8.856;2023-04-01T08:39:48;3.25;;;1.80;;
51020;SDS011;38907;45.562;8.856;2023-04-01T08:50:26;4.90;;;2.05;;
51020;SDS011;38907;45.562;8.856;2023-04-01T08:55:38;3.75;;;1.83;;
51020;SDS011;38907;45.562;8.856;2023-04-01T09:00:49;3.70;;;1.70;;
51020;SDS011;38907;45.562;8.856;2023-04-01T09:06:11;4.18;;;1.70;;
51020;SDS011;38907;45.562;8.856;2023-04-01T09:11:27;3.00;;;1.40;;
51020;SDS011;38907;45.562;8.856;2023-04-01T09:27:49;7.88;;;1.52;;
51020;SDS011;38907;45.562;8.856;2023-04-01T09:33:08;5.50;;;1.67;;
51020;SDS011;38907;45.562;8.856;2023-04-01T09:38:28;1.98;;;0.98;;
51020;SDS011;38907;45.562;8.856;2023-04-01T09:43:34;1.83;;;0.88;;
51020;SDS011;38907;45.562;8.856;2023-04-01T09:48:55;2.17;;;1.50;;
51020;SDS011;38907;45.562;8.856;2023-04-01T09:54:23;1.35;;;0.70;;
51020;SDS011;38907;45.562;8.856;2023-04-01T10:05:24;1.10;;;0.70;;
51020;SDS011;38907;45.562;8.856;2023-04-01T10:11:04;1.45;;;0.80;;
51020;SDS011;38907;45.562;8.856;2023-04-01T10:27:47;2.30;;;1.70;;
51020;SDS011;38907;45.562;8.856;2023-04-01T10:33:22;4.95;;;2.25;;
51020;SDS011;38907;45.562;8.856;2023-04-01T10:39:06;1.77;;;1.17;;
51020;SDS011;38907;45.562;8.856;2023-04-01T10:50:18;1.58;;;1.15;;
51020;SDS011;38907;45.562;8.856;2023-04-01T10:55:37;1.00;;;0.50;;
51020;SDS011;38907;45.562;8.856;2023-04-01T11:12:33;3.50;;;1.55;;
51020;SDS011;38907;45.562;8.856;2023-04-01T11:23:43;0.28;;;0.28;;
51020;SDS011;38907;45.562;8.856;2023-04-01T11:29:27;7.00;;;3.33;;
51020;SDS011;38907;45.562;8.856;2023-04-01T11:34:59;10.25;;;5.50;;
51020;SDS011;38907;45.562;8.856;2023-04-01T11:40:23;3.28;;;0.75;;
51020;SDS011;38907;45.562;8.856;2023-04-01T11:45:34;3.85;;;1.58;;
51020;SDS011;38907;45.562;8.856;2023-04-01T11:50:40;1.52;;;0.70;;
51020;SDS011;38907;45.562;8.856;2023-04-01T12:01:26;6.35;;;3.78;;
51020;SDS011;38907;45.562;8.856;2023-04-01T12:06:37;2.08;;;1.30;;
51020;SDS011;38907;45.562;8.856;2023-04-01T12:11:49;4.07;;;2.25;;
51020;SDS011;38907;45.562;8.856;2023-04-01T12:17:16;3.35;;;0.50;;
51020;SDS011;38907;45.562;8.856;2023-04-01T12:22:30;3.70;;;1.30;;
51020;SDS011;38907;45.562;8.856;2023-04-01T12:27:44;14.45;;;5.80;;
51020;SDS011;38907;45.562;8.856;2023-04-01T12:33:00;18.02;;;7.60;;
51020;SDS011;38907;45.562;8.856;2023-04-01T12:38:21;6.22;;;2.33;;
51020;SDS011;38907;45.562;8.856;2023-04-01T12:43:34;0.82;;;0.60;;
51020;SDS011;38907;45.562;8.856;2023-04-01T12:49:04;3.13;;;0.40;;
51020;SDS011;38907;45.562;8.856;2023-04-01T13:00:03;0.75;;;0.50;;
51020;SDS011;38907;45.562;8.856;2023-04-01T13:05:18;2.25;;;0.30;;
51020;SDS011;38907;45.562;8.856;2023-04-01T13:10:37;0.22;;;0.22;;
51020;SDS011;38907;45.562;8.856;2023-04-01T13:15:46;0.98;;;0.30;;
51020;SDS011;38907;45.562;8.856;2023-04-01T13:20:57;0.40;;;0.25;;
51020;SDS011;38907;45.562;8.856;2023-04-01T13:26:10;0.63;;;0.40;;
51020;SDS011;38907;45.562;8.856;2023-04-01T13:31:24;1.10;;;0.40;;
51020;SDS011;38907;45.562;8.856;2023-04-01T13:36:41;9.27;;;0.90;;
51020;SDS011;38907;45.562;8.856;2023-04-01T13:41:59;0.30;;;0.25;;
51020;SDS011;38907;45.562;8.856;2023-04-01T13:47:17;2.05;;;0.25;;
51020;SDS011;38907;45.562;8.856;2023-04-01T13:52:40;2.88;;;0.60;;
51020;SDS011;38907;45.562;8.856;2023-04-01T13:58:11;2.83;;;0.57;;
51020;SDS011;38907;45.562;8.856;2023-04-01T14:03:49;0.52;;;0.20;;
51020;SDS011;38907;45.562;8.856;2023-04-01T14:14:52;0.82;;;0.30;;
51020;SDS011;38907;45.562;8.856;2023-04-01T14:20:14;0.17;;;0.13;;
51020;SDS011;38907;45.562;8.856;2023-04-01T14:25:52;0.10;;;0.10;;
51020;SDS011;38907;45.562;8.856;2023-04-01T14:31:23;0.30;;;0.13;;
51020;SDS011;38907;45.562;8.856;2023-04-01T14:36:40;0.15;;;0.15;;
51020;SDS011;38907;45.562;8.856;2023-04-01T14:41:51;0.30;;;0.15;;
51020;SDS011;38907;45.562;8.856;2023-04-01T14:47:15;4.47;;;0.40;;
51020;SDS011;38907;45.562;8.856;2023-04-01T14:52:30;0.20;;;0.20;;
51020;SDS011;38907;45.562;8.856;2023-04-01T14:57:36;48.05;;;4.05;;
51020;SDS011;38907;45.562;8.856;2023-04-01T15:02:42;1.45;;;0.40;;
51020;SDS011;38907;45.562;8.856;2023-04-01T15:07:55;6.47;;;0.40;;
51020;SDS011;38907;45.562;8.856;2023-04-01T15:13:09;2.53;;;0.22;;
51020;SDS011;38907;45.562;8.856;2023-04-01T15:18:16;0.40;;;0.20;;
51020;SDS011;38907;45.562;8.856;2023-04-01T15:23:25;0.50;;;0.30;;
51020;SDS011;38907;45.562;8.856;2023-04-01T15:28:38;0.50;;;0.30;;
51020;SDS011;38907;45.562;8.856;2023-04-01T15:33:48;0.20;;;0.20;;
51020;SDS011;38907;45.562;8.856;2023-04-01T15:39:03;0.40;;;0.20;;
51020;SDS011;38907;45.562;8.856;2023-04-01T15:44:34;0.20;;;0.20;;
51020;SDS011;38907;45.562;8.856;2023-04-01T15:49:46;2.40;;;0.30;;
51020;SDS011;38907;45.562;8.856;2023-04-01T16:00:22;0.20;;;0.20;;
51020;SDS011;38907;45.562;8.856;2023-04-01T16:05:31;0.17;;;0.17;;
51020;SDS011;38907;45.562;8.856;2023-04-01T16:10:44;5.72;;;0.70;;
51020;SDS011;38907;45.562;8.856;2023-04-01T16:16:03;0.20;;;0.20;;
51020;SDS011;38907;45.562;8.856;2023-04-01T16:21:13;0.10;;;0.10;;
51020;SDS011;38907;45.562;8.856;2023-04-01T16:26:26;0.52;;;0.50;;
51020;SDS011;38907;45.562;8.856;2023-04-01T16:31:35;0.55;;;0.50;;
51020;SDS011;38907;45.562;8.856;2023-04-01T16:36:44;0.95;;;0.30;;
51020;SDS011;38907;45.562;8.856;2023-04-01T16:41:49;0.40;;;0.40;;
51020;SDS011;38907;45.562;8.856;2023-04-01T16:47:05;1.40;;;0.75;;
51020;SDS011;38907;45.562;8.856;2023-04-01T16:52:14;0.57;;;0.43;;
51020;SDS011;38907;45.562;8.856;2023-04-01T16:57:19;1.27;;;1.17;;
51020;SDS011;38907;45.562;8.856;2023-04-01T17:02:25;4.93;;;2.70;;
51020;SDS011;38907;45.562;8.856;2023-04-01T17:07:33;8.32;;;2.67;;
51020;SDS011;38907;45.562;8.856;2023-04-01T17:12:45;3.83;;;1.40;;
51020;SDS011;38907;45.562;8.856;2023-04-01T17:18:01;6.82;;;0.90;;
51020;SDS011;38907;45.562;8.856;2023-04-01T17:23:12;1.90;;;0.82;;
51020;SDS011;38907;45.562;8.856;2023-04-01T17:28:24;2.92;;;0.70;;
51020;SDS011;38907;45.562;8.856;2023-04-01T17:33:42;0.63;;;0.50;;
51020;SDS011;38907;45.562;8.856;2023-04-01T17:38:58;2.65;;;0.70;;
51020;SDS011;38907;45.562;8.856;2023-04-01T17:44:15;5.60;;;0.95;;
51020;SDS011;38907;45.562;8.856;2023-04-01T17:49:28;7.38;;;0.95;;
51020;SDS011;38907;45.562;8.856;2023-04-01T17:54:39;1.80;;;0.50;;
51020;SDS011;38907;45.562;8.856;2023-04-01T17:59:49;3.42;;;1.02;;
51020;SDS011;38907;45.562;8.856;2023-04-01T18:05:12;4.10;;;0.50;;
51020;SDS011;38907;45.562;8.856;2023-04-01T18:10:37;0.98;;;0.88;;
51020;SDS011;38907;45.562;8.856;2023-04-01T18:15:50;1.58;;;1.20;;
51020;SDS011;38907;45.562;8.856;2023-04-01T18:21:02;3.17;;;0.60;;
51020;SDS011;38907;45.562;8.856;2023-04-01T18:26:12;0.57;;;0.50;;
51020;SDS011;38907;45.562;8.856;2023-04-01T18:31:22;4.63;;;1.42;;
51020;SDS011;38907;45.562;8.856;2023-04-01T18:36:35;1.65;;;0.95;;
51020;SDS011;38907;45.562;8.856;2023-04-01T18:41:44;1.25;;;0.80;;
51020;SDS011;38907;45.562;8.856;2023-04-01T18:46:55;1.25;;;0.85;;
51020;SDS011;38907;45.562;8.856;2023-04-01T18:52:09;1.60;;;1.20;;
51020;SDS011;38907;45.562;8.856;2023-04-01T18:57:18;7.38;;;5.53;;
51020;SDS011;38907;45.562;8.856;2023-04-01T19:02:25;5.97;;;3.42;;
51020;SDS011;38907;45.562;8.856;2023-04-01T19:07:43;4.28;;;3.05;;
51020;SDS011;38907;45.562;8.856;2023-04-01T19:12:50;6.15;;;3.20;;
51020;SDS011;38907;45.562;8.856;2023-04-01T19:18:08;6.03;;;3.30;;
51020;SDS011;38907;45.562;8.856;2023-04-01T19:29:22;4.38;;;2.65;;
51020;SDS011;38907;45.562;8.856;2023-04-01T19:34:36;3.78;;;2.38;;
51020;SDS011;38907;45.562;8.856;2023-04-01T19:39:48;4.85;;;2.58;;
51020;SDS011;38907;45.562;8.856;2023-04-01T19:45:00;2.10;;;1.80;;
51020;SDS011;38907;45.562;8.856;2023-04-01T19:50:16;1.63;;;1.33;;
51020;SDS011;38907;45.562;8.856;2023-04-01T19:55:32;4.22;;;2.17;;
51020;SDS011;38907;45.562;8.856;2023-04-01T20:00:41;2.25;;;1.40;;
51020;SDS011;38907;45.562;8.856;2023-04-01T20:05:55;2.45;;;1.30;;
51020;SDS011;38907;45.562;8.856;2023-04-01T20:11:15;4.93;;;1.45;;
51020;SDS011;38907;45.562;8.856;2023-04-01T20:16:43;3.35;;;2.10;;
51020;SDS011;38907;45.562;8.856;2023-04-01T20:21:52;4.15;;;2.42;;
51020;SDS011;38907;45.562;8.856;2023-04-01T20:27:00;3.05;;;1.60;;
51020;SDS011;38907;45.562;8.856;2023-04-01T20:32:14;3.35;;;0.88;;
51020;SDS011;38907;45.562;8.856;2023-04-01T20:37:31;4.28;;;1.13;;
51020;SDS011;38907;45.562;8.856;2023-04-01T20:42:47;2.63;;;1.52;;
51020;SDS011;38907;45.562;8.856;2023-04-01T20:48:15;4.82;;;2.10;;
51020;SDS011;38907;45.562;8.856;2023-04-01T20:53:41;3.20;;;1.98;;
51020;SDS011;38907;45.562;8.856;2023-04-01T20:58:50;2.95;;;1.90;;
51020;SDS011;38907;45.562;8.856;2023-04-01T21:04:03;3.08;;;1.85;;
51020;SDS011;38907;45.562;8.856;2023-04-01T21:09:28;3.50;;;2.13;;
51020;SDS011;38907;45.562;8.856;2023-04-01T21:14:55;3.70;;;3.00;;
51020;SDS011;38907;45.562;8.856;2023-04-01T21:20:26;4.72;;;2.42;;
51020;SDS011;38907;45.562;8.856;2023-04-01T21:25:55;2.20;;;0.80;;
51020;SDS011;38907;45.562;8.856;2023-04-01T21:31:05;1.52;;;1.33;;
51020;SDS011;38907;45.562;8.856;2023-04-01T21:36:32;2.33;;;1.58;;
51020;SDS011;38907;45.562;8.856;2023-04-01T21:41:45;1.20;;;1.02;;
51020;SDS011;38907;45.562;8.856;2023-04-01T21:47:02;1.77;;;1.30;;
51020;SDS011;38907;45.562;8.856;2023-04-01T21:52:31;1.42;;;1.08;;
51020;SDS011;38907;45.562;8.856;2023-04-01T22:03:47;1.35;;;1.00;;
51020;SDS011;38907;45.562;8.856;2023-04-01T22:09:09;1.42;;;0.90;;
51020;SDS011;38907;45.562;8.856;2023-04-01T22:14:15;1.27;;;1.08;;
51020;SDS011;38907;45.562;8.856;2023-04-01T22:19:22;1.48;;;1.27;;
51020;SDS011;38907;45.562;8.856;2023-04-01T22:24:37;1.05;;;0.90;;
51020;SDS011;38907;45.562;8.856;2023-04-01T22:29:50;21.88;;;19.98;;
51020;SDS011;38907;45.562;8.856;2023-04-01T22:35:01;2.97;;;1.33;;
51020;SDS011;38907;45.562;8.856;2023-04-01T22:40:13;2.10;;;1.10;;
51020;SDS011;38907;45.562;8.856;2023-04-01T22:45:31;1.95;;;0.98;;
51020;SDS011;38907;45.562;8.856;2023-04-01T22:50:48;1.48;;;0.90;;
51020;SDS011;38907;45.562;8.856;2023-04-01T22:55:57;1.17;;;0.90;;
51020;SDS011;38907;45.562;8.856;2023-04-01T23:01:04;1.92;;;0.75;;
51020;SDS011;38907;45.562;8.856;2023-04-01T23:06:11;2.70;;;0.70;;
51020;SDS011;38907;45.562;8.856;2023-04-01T23:11:19;1.77;;;0.88;;
51020;SDS011;38907;45.562;8.856;2023-04-01T23:16:28;0.95;;;0.60;;
51020;SDS011;38907;45.562;8.856;2023-04-01T23:21:35;0.95;;;0.80;;
51020;SDS011;38907;45.562;8.856;2023-04-01T23:26:46;0.55;;;0.55;;
51020;SDS011;38907;45.562;8.856;2023-04-01T23:31:56;0.60;;;0.50;;
51020;SDS011;38907;45.562;8.856;2023-04-01T23:37:02;0.50;;;0.47;;
51020;SDS011;38907;45.562;8.856;2023-04-01T23:42:12;0.65;;;0.55;;
51020;SDS011;38907;45.562;8.856;2023-04-01T23:47:17;0.98;;;0.80;;
51020;SDS011;38907;45.562;8.856;2023-04-01T23:52:22;1.15;;;0.70;;
51020;SDS011;38907;45.562;8.856;2023-04-01T23:57:29;0.30;;;0.30;;
